Cairns Corner, California
Current Conditions -  °F | °C
As of 6:15 PM on Sunday 25 Jan 2015 (Local Time) from KPTV Reporting Station
Clear Clear  
Wind Chill: 43°   Ceiling: Unl
Heat Index: 43°   Visibility: 5mi
Dew Point: 39°   Wind: 3mph
Humidity: 87%   Direction: 350°N
Pressure: 30.07"   Gusts: NA
Location:  36.2085°N, 119.068°W
Report Text: KPTV 260215Z AUTO 35003KT 5SM CLR 06/04 A3007 RMK AO1
Loading
Personal Weather Stations






























Interactive Weather Map New forecast layout! Learn more

10-Day Weather Forecast

Advertisements
Track Severe Weather on mobile